createdAt,value
2018-06-02T00:00:45.224Z,19.3
2018-06-02T00:06:14.581Z,19.2
2018-06-02T00:11:44.918Z,19.1
2018-06-02T00:17:14.250Z,19.1
2018-06-02T00:22:43.569Z,19
2018-06-02T00:28:13.917Z,19
2018-06-02T00:33:44.191Z,18.9
2018-06-02T00:39:14.576Z,18.9
2018-06-02T00:44:44.810Z,18.8
2018-06-02T00:50:14.146Z,18.8
2018-06-02T00:55:43.491Z,18.8
2018-06-02T01:01:12.700Z,18.7
2018-06-02T01:06:42.008Z,18.7
2018-06-02T01:12:12.317Z,18.7
2018-06-02T01:17:41.576Z,18.7
2018-06-02T01:23:11.865Z,18.6
2018-06-02T01:28:42.168Z,18.6
2018-06-02T01:34:11.670Z,18.6
2018-06-02T01:39:40.940Z,18.6
2018-06-02T01:45:09.976Z,18.5
2018-06-02T01:50:40.260Z,18.5
2018-06-02T01:56:09.498Z,18.5
2018-06-02T02:01:39.761Z,18.5
2018-06-02T02:07:08.964Z,18.4
2018-06-02T02:12:39.219Z,18.3
2018-06-02T02:18:09.462Z,18.2
2018-06-02T02:23:39.670Z,18.1
2018-06-02T02:29:09.869Z,18.1
2018-06-02T02:34:39.190Z,18
2018-06-02T02:40:08.306Z,18
2018-06-02T02:45:38.547Z,18
2018-06-02T02:51:08.708Z,17.9
2018-06-02T02:56:37.871Z,17.8
2018-06-02T03:02:07.088Z,17.9
2018-06-02T03:07:37.322Z,17.9
2018-06-02T03:13:07.535Z,17.9
2018-06-02T03:18:36.635Z,17.9
2018-06-02T03:24:05.859Z,17.9
2018-06-02T03:29:36.099Z,18
2018-06-02T03:35:05.280Z,18
2018-06-02T03:40:34.695Z,18
2018-06-02T03:46:03.649Z,18.1
2018-06-02T03:51:33.853Z,18.1
2018-06-02T03:57:03.112Z,18.1
2018-06-02T04:02:33.350Z,18.2
2018-06-02T04:08:02.574Z,18.2
2018-06-02T04:13:32.803Z,18.2
2018-06-02T04:19:02.973Z,18.2
2018-06-02T04:24:32.207Z,18.2
2018-06-02T04:30:01.486Z,18.2
2018-06-02T04:35:30.647Z,18.2
2018-06-02T04:41:00.853Z,18.3
2018-06-02T04:46:30.121Z,18.4
2018-06-02T04:51:59.300Z,18.4
2018-06-02T04:57:28.575Z,18.4
2018-06-02T05:02:58.811Z,18.5
2018-06-02T05:08:28.089Z,18.5
2018-06-02T05:13:58.418Z,18.6
2018-06-02T05:19:28.578Z,18.7
2018-06-02T05:24:57.833Z,18.7
2018-06-02T05:30:27.152Z,18.8
2018-06-02T05:35:56.467Z,18.8
2018-06-02T05:41:26.697Z,18.9
2018-06-02T05:46:57.103Z,19
2018-06-02T05:52:27.362Z,19.1
2018-06-02T05:57:57.655Z,19.2
2018-06-02T06:03:27.111Z,19.3
2018-06-02T06:08:57.298Z,19.4
2018-06-02T06:14:27.640Z,19.5
2018-06-02T06:19:57.087Z,19.6
2018-06-02T06:25:26.534Z,19.7
2018-06-02T06:30:55.839Z,19.9
2018-06-02T06:36:26.233Z,20
2018-06-02T06:41:55.687Z,20.2
2018-06-02T06:47:25.100Z,20.3
2018-06-02T06:52:54.534Z,20.4
2018-06-02T06:58:24.067Z,20.5
2018-06-02T07:03:53.575Z,20.7
2018-06-02T07:09:23.030Z,20.8
2018-06-02T07:14:53.856Z,21
2018-06-02T07:20:24.140Z,21.2
2018-06-02T07:25:54.765Z,21.4
2018-06-02T07:31:24.373Z,21.5
2018-06-02T07:36:54.072Z,21.7
2018-06-02T07:42:24.739Z,21.8
2018-06-02T07:47:54.386Z,21.9
2018-06-02T07:53:24.187Z,22
2018-06-02T07:58:53.767Z,22.1
2018-06-02T08:04:24.403Z,22.2
2018-06-02T08:09:54.389Z,22.3
2018-06-02T08:15:24.860Z,22.3
2018-06-02T08:20:54.626Z,22.4
2018-06-02T08:26:24.339Z,22.5
2018-06-02T08:31:54.100Z,22.6
2018-06-02T08:37:24.822Z,22.7
2018-06-02T08:42:54.539Z,22.8
2018-06-02T08:48:25.472Z,22.9
2018-06-02T08:53:56.102Z,23.1
2018-06-02T08:59:25.954Z,23.2
2018-06-02T09:04:55.675Z,23.3
2018-06-02T09:15:57.542Z,23.4
2018-06-02T09:26:56.962Z,23.7
2018-06-02T09:32:27.862Z,23.8
2018-06-02T09:37:57.712Z,23.9
2018-06-02T09:43:28.652Z,24
2018-06-02T09:48:59.531Z,24.1
2018-06-02T09:54:30.393Z,24.2
2018-06-02T10:00:01.360Z,24.3
2018-06-02T10:05:31.279Z,24.4
2018-06-02T10:11:01.233Z,24.5
2018-06-02T10:16:32.162Z,24.5
2018-06-02T10:22:03.227Z,24.6
2018-06-02T10:27:34.107Z,24.7
2018-06-02T10:33:04.066Z,24.8
2018-06-02T10:38:35.139Z,24.9
2018-06-02T10:44:05.725Z,25.1
2018-06-02T10:49:35.151Z,25.2
2018-06-02T10:55:06.219Z,25.3
2018-06-02T11:00:36.298Z,25.4
2018-06-02T11:06:06.392Z,25.6
2018-06-02T11:11:36.498Z,25.6
2018-06-02T11:17:07.637Z,25.6
2018-06-02T11:22:38.783Z,25.7
2018-06-02T11:28:09.830Z,25.7
2018-06-02T11:33:39.941Z,25.7
2018-06-02T11:39:10.109Z,25.8
2018-06-02T11:44:40.278Z,25.8
2018-06-02T11:50:10.374Z,25.9
2018-06-02T11:55:40.587Z,26
2018-06-02T12:01:10.809Z,26
2018-06-02T12:06:40.750Z,26.1
2018-06-02T12:12:10.902Z,26.1
2018-06-02T12:17:41.090Z,26.2
2018-06-02T12:23:11.247Z,26
2018-06-02T12:28:41.360Z,25.6
2018-06-02T12:34:12.444Z,25.5
2018-06-02T12:39:43.488Z,25.5
2018-06-02T12:45:13.639Z,25.6
2018-06-02T12:50:43.773Z,25.7
2018-06-02T12:56:13.914Z,25.7
2018-06-02T13:01:44.968Z,25.6
2018-06-02T13:07:15.127Z,25.6
2018-06-02T13:12:45.216Z,25.9
2018-06-02T13:18:16.505Z,26.2
2018-06-02T13:23:47.601Z,26.3
2018-06-02T13:29:17.755Z,26.2
2018-06-02T13:34:48.981Z,26.2
2018-06-02T13:40:19.156Z,26.1
2018-06-02T13:45:50.281Z,26
2018-06-02T13:51:20.462Z,25.9
2018-06-02T13:56:51.551Z,25.7
2018-06-02T14:02:21.636Z,25.6
2018-06-02T14:07:51.722Z,25.5
2018-06-02T14:13:21.827Z,25.4
2018-06-02T14:18:51.976Z,25.4
2018-06-02T14:24:22.006Z,25.2
2018-06-02T14:29:51.983Z,25.1
2018-06-02T14:35:23.021Z,25
2018-06-02T14:40:54.129Z,25
2018-06-02T14:46:25.076Z,24.9
2018-06-02T14:51:56.062Z,24.9
2018-06-02T14:57:26.088Z,24.8
2018-06-02T15:02:57.122Z,24.7
2018-06-02T15:08:27.085Z,24.5
2018-06-02T15:13:58.005Z,24.4
2018-06-02T15:19:27.985Z,24.3
2018-06-02T15:24:57.926Z,24.3
2018-06-02T15:30:28.833Z,24.3
2018-06-02T15:35:58.773Z,24.3
2018-06-02T15:41:28.735Z,24.3
2018-06-02T15:46:58.659Z,24.2
2018-06-02T15:52:28.601Z,24.1
2018-06-02T15:57:59.562Z,24.2
2018-06-02T16:03:29.521Z,24.2
2018-06-02T16:09:00.352Z,24.2
2018-06-02T16:14:31.360Z,24.1
2018-06-02T16:20:01.510Z,24
2018-06-02T16:25:31.079Z,24
2018-06-02T16:31:01.007Z,24
2018-06-02T16:36:30.855Z,23.9
2018-06-02T16:42:00.751Z,23.9
2018-06-02T16:47:30.635Z,23.9
2018-06-02T16:53:01.556Z,24
2018-06-02T16:58:32.618Z,23.9
2018-06-02T17:04:02.399Z,23.7
2018-06-02T17:09:33.150Z,23.4
2018-06-02T17:15:03.017Z,23.1
2018-06-02T17:20:32.682Z,23.1
2018-06-02T17:26:03.487Z,23.1
2018-06-02T17:31:33.256Z,23
2018-06-02T17:31:33.942Z,23
2018-06-02T17:37:03.044Z,22.9
2018-06-02T17:42:32.780Z,22.9
2018-06-02T17:48:03.624Z,22.7
2018-06-02T17:53:34.585Z,22.5
2018-06-02T17:59:05.015Z,22.4
2018-06-02T18:04:35.982Z,22.2
2018-06-02T18:10:05.500Z,22.1
2018-06-02T18:15:35.220Z,22
2018-06-02T18:21:05.858Z,21.9
2018-06-02T18:26:35.541Z,21.7
2018-06-02T18:32:05.143Z,21.6
2018-06-02T18:37:34.803Z,21.5
2018-06-02T18:43:04.468Z,21.4
2018-06-02T18:48:35.041Z,21.2
2018-06-02T18:54:05.640Z,21
2018-06-02T18:59:36.212Z,20.8
2018-06-02T19:05:05.633Z,20.8
2018-06-02T19:10:36.158Z,20.8
2018-06-02T19:16:05.886Z,20.7
2018-06-02T19:21:35.185Z,20.6
2018-06-02T19:27:05.732Z,20.6
2018-06-02T19:32:36.201Z,20.6
2018-06-02T19:38:06.699Z,20.6
2018-06-02T19:43:37.259Z,20.6
2018-06-02T19:49:07.695Z,20.5
2018-06-02T19:54:38.197Z,20.4
2018-06-02T20:00:07.759Z,20.4
2018-06-02T20:05:37.175Z,20.4
2018-06-02T20:11:06.584Z,20.4
2018-06-02T20:16:37.092Z,20.4
2018-06-02T20:22:06.579Z,20.4
2018-06-02T20:27:37.348Z,20.4
2018-06-02T20:33:07.565Z,20.3
2018-06-02T20:38:38.131Z,20.2
2018-06-02T20:44:08.890Z,20.1
2018-06-02T20:49:37.785Z,20
2018-06-02T20:55:08.250Z,20
2018-06-02T21:00:37.704Z,19.9
2018-06-02T21:06:07.107Z,19.9
2018-06-02T21:11:37.450Z,19.8
2018-06-02T21:17:07.840Z,19.8
2018-06-02T21:33:38.089Z,19.7
2018-06-02T21:39:08.388Z,19.7
2018-06-02T21:44:37.843Z,19.7
2018-06-02T21:50:08.285Z,19.7
2018-06-02T21:55:37.724Z,19.6
2018-06-02T22:01:07.921Z,19.6
2018-06-02T22:06:37.354Z,19.5
2018-06-02T22:12:07.668Z,19.5
2018-06-02T22:17:38.110Z,19.5
2018-06-02T22:23:08.368Z,19.4
2018-06-02T22:28:37.729Z,19.4
2018-06-02T22:34:08.123Z,19.4
2018-06-02T22:39:37.537Z,19.5
2018-06-02T22:45:06.795Z,19.5
2018-06-02T22:50:36.352Z,19.5
2018-06-02T22:56:05.679Z,19.5
2018-06-02T23:01:34.879Z,19.4
2018-06-02T23:07:05.215Z,19.4
2018-06-02T23:12:34.666Z,19.4
2018-06-02T23:18:03.951Z,19.4
2018-06-02T23:23:33.302Z,19.4
2018-06-02T23:29:03.655Z,19.3
2018-06-02T23:34:32.971Z,19.1
2018-06-02T23:40:02.306Z,18.9
2018-06-02T23:45:32.569Z,18.8
2018-06-02T23:51:02.843Z,18.7
2018-06-02T23:56:33.123Z,18.7
